Time;durP1;ratioP1;P1;durP2;ratioP2;P2;SDS_P1;SDS_P2;PMS_P1;PMS_P2;Temp;Humidity;BMP_temperature;BMP_pressure;BME280_temperature;BME280_humidity;BME280_pressure;Samples;Min_cycle;Max_cycle;Signal;HPM_P1;HPM_P2
2021/06/26 00:00:17;;;;;;;;;;;;;;;;;;2080597;28;45323;-67
2021/06/26 00:01:18;;;;;;;;;;;;;;;;;;2080440;28;45092;-68
2021/06/26 00:02:20;;;;;;;;;;;;;;;;;;2072570;28;44409;-67
2021/06/26 00:03:23;;;;;;;;;;;;;;;;;;2080562;28;44427;-67
2021/06/26 00:04:24;;;;;;;;;;;;;;;;;;2072609;28;43986;-67
2021/06/26 00:05:25;;;;;;;;;;;;;;;;;;2080622;28;45260;-67
2021/06/26 00:06:27;;;;;;;;;;;;;;;;;;2081169;28;45299;-67
2021/06/26 00:07:28;;;;;;;;;;;;;;;;;;2080531;28;45339;-67
2021/06/26 00:08:30;;;;;;;;;;;;;;;;;;2080883;28;43896;-68
2021/06/26 00:09:31;;;;;;;;;;;;;;;;;;2080522;28;46354;-67
2021/06/26 00:10:33;;;;;;;;;;;;;;;;;;2080420;28;46361;-67
2021/06/26 00:11:35;;;;;;;;;;;;;;;;;;2080418;28;45715;-67
2021/06/26 00:12:36;;;;;;;;;;;;;;;;;;2072307;28;46149;-68
2021/06/26 00:13:38;;;;;;;;;;;;;;;;;;2080506;28;43412;-68
2021/06/26 00:14:39;;;;;;;;;;;;;;;;;;2081297;28;45142;-67
2021/06/26 00:15:41;;;;;;;;;;;;;;;;;;2080482;28;45619;-67
2021/06/26 00:16:42;;;;;;;;;;;;;;;;;;2080880;28;43276;-68
2021/06/26 00:17:44;;;;;;;;;;;;;;;;;;2080529;28;46516;-67
2021/06/26 00:18:45;;;;;;;;;;;;;;;;;;2072639;28;44245;-67
2021/06/26 00:19:47;;;;;;;;;;;;;;;;;;2072475;28;44159;-68
2021/06/26 00:20:48;;;;;;;;;;;;;;;;;;2080510;28;46479;-67
2021/06/26 00:21:50;;;;;;;;;;;;;;;;;;2080718;28;43889;-67
2021/06/26 00:22:51;;;;;;;;;;;;;;;;;;2072013;28;44340;-67
2021/06/26 00:23:52;;;;;;;;;;;;;;;;;;2072480;28;44266;-67
2021/06/26 00:24:54;;;;;;;;;;;;;;;;;;2072217;28;43184;-67
2021/06/26 00:25:55;;;;;;;;;;;;;;;;;;2072411;28;45378;-68
2021/06/26 00:26:56;;;;;;;;;;;;;;;;;;2080364;28;44169;-68
2021/06/26 00:27:58;;;;;;;;;;;;;;;;;;2081030;28;45425;-67
2021/06/26 00:28:59;;;;;;;;;;;;;;;;;;2080466;28;45446;-67
2021/06/26 00:30:01;;;;;;;;;;;;;;;;;;2072414;28;46525;-68
2021/06/26 00:31:02;;;;;;;;;;;;;;;;;;2080522;28;45362;-67
2021/06/26 00:32:04;;;;;;;;;;;;;;;;;;2080907;28;44013;-67
2021/06/26 00:33:06;;;;;;;;;;;;;;;;;;2081047;28;44785;-67
2021/06/26 00:34:07;;;;;;;;;;;;;;;;;;2080522;28;42979;-68
2021/06/26 00:35:09;;;;;;;;;;;;;;;;;;2080359;28;46472;-67
2021/06/26 00:36:11;;;;;;;;;;;;;;;;;;2072872;28;44319;-67
2021/06/26 00:37:12;;;;;;;;;;;;;;;;;;2072222;28;44386;-68
2021/06/26 00:38:14;;;;;;;;;;;;;;;;;;2064346;28;43608;-67
2021/06/26 00:39:15;;;;;;;;;;;;;;;;;;2064186;28;45489;-68
2021/06/26 00:40:16;;;;;;;;;;;;;;;;;;2064420;28;45434;-67
2021/06/26 00:41:18;;;;;;;;;;;;;;;;;;2072093;28;44753;-67
2021/06/26 00:42:19;;;;;;;;;;;;;;;;;;2072019;28;47050;-68
2021/06/26 00:43:21;;;;;;;;;;;;;;;;;;2063850;28;46978;-67
2021/06/26 00:44:26;;;;;;;;;;;;;;;;;;2072558;28;44088;-66
2021/06/26 00:45:27;;;;;;;;;;;;;;;;;;2072747;28;46312;-67
2021/06/26 00:46:29;;;;;;;;;;;;;;;;;;2072754;28;45936;-67
2021/06/26 00:47:30;;;;;;;;;;;;;;;;;;2072818;28;46189;-67
2021/06/26 00:48:32;;;;;;;;;;;;;;;;;;2072829;28;44869;-67
2021/06/26 00:49:33;;;;;;;;;;;;;;;;;;2072590;28;45946;-68
2021/06/26 00:50:35;;;;;;;;;;;;;;;;;;2080386;28;44778;-68
2021/06/26 00:51:37;;;;;;;;;;;;;;;;;;2071871;28;44574;-67
2021/06/26 00:52:38;;;;;;;;;;;;;;;;;;2064034;28;47169;-68
2021/06/26 00:53:40;;;;;;;;;;;;;;;;;;2072432;28;43001;-67
2021/06/26 00:54:41;;;;;;;;;;;;;;;;;;2081845;28;45954;-67
2021/06/26 00:55:52;;;;;;;;;;;;;;;;;;2081659;28;45930;-67
2021/06/26 00:56:53;;;;;;;;;;;;;;;;;;2073659;28;46152;-67
2021/06/26 00:58:01;;;;;;;;;;;;;;;;;;2073389;28;45920;-68
2021/06/26 00:59:03;;;;;;;;;;;;;;;;;;2066409;28;45794;-68
2021/06/26 01:00:04;;;;;;;;;;;;;;;;;;2073825;28;44245;-67
2021/06/26 01:01:06;;;;;;;;;;;;;;;;;;2073527;28;45798;-68
2021/06/26 01:02:10;;;;;;;;;;;;;;;;;;2072784;28;46201;-68
2021/06/26 01:03:11;;;;;;;;;;;;;;;;;;2082315;28;45768;-67
2021/06/26 01:04:12;;;;;;;;;;;;;;;;;;2089794;28;45247;-67
2021/06/26 01:05:14;;;;;;;;;;;;;;;;;;2082340;28;45381;-68
2021/06/26 01:06:16;;;;;;;;;;;;;;;;;;2082252;28;46613;-68
2021/06/26 01:07:17;;;;;;;;;;;;;;;;;;2081745;28;45645;-67
2021/06/26 01:08:19;;;;;;;;;;;;;;;;;;2081620;28;45325;-68
2021/06/26 01:09:20;;;;;;;;;;;;;;;;;;2081745;28;46721;-67
2021/06/26 01:10:22;;;;;;;;;;;;;;;;;;2073495;28;45373;-68
2021/06/26 01:11:23;;;;;;;;;;;;;;;;;;2073322;28;45478;-67
2021/06/26 01:12:24;;;;;;;;;;;;;;;;;;2081776;28;43990;-68
2021/06/26 01:13:28;;;;;;;;;;;;;;;;;;2089820;28;45539;-67
2021/06/26 01:14:30;;;;;;;;;;;;;;;;;;2082207;28;46588;-67
2021/06/26 01:15:32;;;;;;;;;;;;;;;;;;2082240;28;46548;-67
2021/06/26 01:16:33;;;;;;;;;;;;;;;;;;2082343;28;45213;-67
2021/06/26 01:17:35;;;;;;;;;;;;;;;;;;2081673;28;45583;-67
2021/06/26 01:18:36;;;;;;;;;;;;;;;;;;2081853;28;46518;-68
2021/06/26 01:19:37;;;;;;;;;;;;;;;;;;2081755;28;45863;-67
2021/06/26 01:20:39;;;;;;;;;;;;;;;;;;2081786;28;43945;-67
2021/06/26 01:21:40;;;;;;;;;;;;;;;;;;2081957;28;45286;-67
2021/06/26 01:22:44;;;;;;;;;;;;;;;;;;2073949;28;44274;-67
2021/06/26 01:23:47;;;;;;;;;;;;;;;;;;2082278;28;46525;-68
2021/06/26 01:24:51;;;;;;;;;;;;;;;;;;2082053;28;46192;-67
2021/06/26 01:25:53;;;;;;;;;;;;;;;;;;2074164;28;46579;-68
2021/06/26 01:26:55;;;;;;;;;;;;;;;;;;2081791;28;46642;-68
2021/06/26 01:27:58;;;;;;;;;;;;;;;;;;2082474;28;45323;-67
2021/06/26 01:29:00;;;;;;;;;;;;;;;;;;2082471;28;46906;-67
2021/06/26 01:30:02;;;;;;;;;;;;;;;;;;2082199;28;46726;-67
2021/06/26 01:31:04;;;;;;;;;;;;;;;;;;2082161;28;45458;-67
2021/06/26 01:32:06;;;;;;;;;;;;;;;;;;2081786;28;44196;-67
2021/06/26 01:33:08;;;;;;;;;;;;;;;;;;2081365;28;45010;-67
2021/06/26 01:34:09;;;;;;;;;;;;;;;;;;2073403;28;45491;-67
2021/06/26 01:35:11;;;;;;;;;;;;;;;;;;2073209;28;44248;-67
2021/06/26 01:36:12;;;;;;;;;;;;;;;;;;2073362;28;46723;-67
2021/06/26 01:37:14;;;;;;;;;;;;;;;;;;2081645;28;43602;-67
2021/06/26 01:38:15;;;;;;;;;;;;;;;;;;2082157;28;43438;-67
2021/06/26 01:39:17;;;;;;;;;;;;;;;;;;2082047;28;44078;-67
2021/06/26 01:40:20;;;;;;;;;;;;;;;;;;2082004;28;45346;-68
2021/06/26 01:41:28;;;;;;;;;;;;;;;;;;2089379;28;45865;-67
2021/06/26 01:42:29;;;;;;;;;;;;;;;;;;2081360;28;46420;-67
2021/06/26 01:43:31;;;;;;;;;;;;;;;;;;2073343;28;46638;-67
2021/06/26 01:44:32;;;;;;;;;;;;;;;;;;2081307;28;45566;-68
2021/06/26 01:45:34;;;;;;;;;;;;;;;;;;2081919;28;45286;-67
2021/06/26 01:46:38;;;;;;;;;;;;;;;;;;2081752;28;44804;-67
2021/06/26 01:47:46;;;;;;;;;;;;;;;;;;2081395;28;47032;-67
2021/06/26 01:48:47;;;;;;;;;;;;;;;;;;2081307;28;45979;-67
2021/06/26 01:49:48;;;;;;;;;;;;;;;;;;2081406;28;44850;-68
2021/06/26 01:50:51;;;;;;;;;;;;;;;;;;2081242;28;45579;-67
2021/06/26 01:51:53;;;;;;;;;;;;;;;;;;2081004;28;45940;-67
2021/06/26 01:52:55;;;;;;;;;;;;;;;;;;2081926;28;45867;-67
2021/06/26 01:53:56;;;;;;;;;;;;;;;;;;2081282;28;45891;-67
2021/06/26 01:54:57;;;;;;;;;;;;;;;;;;2073177;28;44646;-67
2021/06/26 01:55:59;;;;;;;;;;;;;;;;;;2073047;28;45807;-67
2021/06/26 01:57:00;;;;;;;;;;;;;;;;;;2081483;28;44388;-67
2021/06/26 01:58:02;;;;;;;;;;;;;;;;;;2081276;28;46954;-67
2021/06/26 01:59:04;;;;;;;;;;;;;;;;;;2081728;28;43961;-67
2021/06/26 02:00:05;;;;;;;;;;;;;;;;;;2081445;28;46200;-67
2021/06/26 02:01:07;;;;;;;;;;;;;;;;;;2081191;28;47157;-67
2021/06/26 02:02:08;;;;;;;;;;;;;;;;;;2095853;22;44588;-69
2021/06/26 02:03:10;;;;;;;;;;;;;;;;;;2081907;28;45883;-69
2021/06/26 02:04:11;;;;;;;;;;;;;;;;;;2089807;28;45828;-69
2021/06/26 02:05:13;;;;;;;;;;;;;;;;;;2089135;28;45776;-69
2021/06/26 02:06:15;;;;;;;;;;;;;;;;;;2081357;28;47204;-69
2021/06/26 02:07:16;;;;;;;;;;;;;;;;;;2081133;28;46970;-69
2021/06/26 02:08:18;;;;;;;;;;;;;;;;;;2089808;28;43569;-69
2021/06/26 02:09:19;;;;;;;;;;;;;;;;;;2090394;28;47508;-69
2021/06/26 02:10:21;;;;;;;;;;;;;;;;;;2089482;28;46534;-69
2021/06/26 02:11:22;;;;;;;;;;;;;;;;;;2081241;28;45319;-69
2021/06/26 02:12:24;;;;;;;;;;;;;;;;;;2089325;28;43901;-69
2021/06/26 02:13:25;;;;;;;;;;;;;;;;;;2089340;28;44945;-69
2021/06/26 02:14:26;;;;;;;;;;;;;;;;;;2081312;28;47047;-69
2021/06/26 02:15:28;;;;;;;;;;;;;;;;;;2089005;28;47099;-69
2021/06/26 02:16:29;;;;;;;;;;;;;;;;;;2089443;28;45277;-69
2021/06/26 02:17:31;;;;;;;;;;;;;;;;;;2089141;28;44420;-69
2021/06/26 02:18:33;;;;;;;;;;;;;;;;;;2089560;28;43965;-69
2021/06/26 02:19:34;;;;;;;;;;;;;;;;;;2089435;28;46688;-69
2021/06/26 02:20:35;;;;;;;;;;;;;;;;;;2081217;28;43579;-69
2021/06/26 02:21:37;;;;;;;;;;;;;;;;;;2081156;28;45390;-69
2021/06/26 02:22:41;;;;;;;;;;;;;;;;;;2081151;28;45300;-69
2021/06/26 02:23:43;;;;;;;;;;;;;;;;;;2089251;28;45284;-69
2021/06/26 02:24:45;;;;;;;;;;;;;;;;;;2089499;28;45822;-69
2021/06/26 02:25:46;;;;;;;;;;;;;;;;;;2089829;28;45516;-69
2021/06/26 02:26:48;;;;;;;;;;;;;;;;;;2089491;28;45131;-69
2021/06/26 02:27:49;;;;;;;;;;;;;;;;;;2089063;28;46573;-69
2021/06/26 02:28:50;;;;;;;;;;;;;;;;;;2081368;28;44049;-69
2021/06/26 02:29:52;;;;;;;;;;;;;;;;;;2089096;28;45179;-69
2021/06/26 02:30:53;;;;;;;;;;;;;;;;;;2090381;28;43746;-69
2021/06/26 02:31:55;;;;;;;;;;;;;;;;;;2089155;28;44028;-69
2021/06/26 02:32:56;;;;;;;;;;;;;;;;;;2081183;28;44906;-68
2021/06/26 02:33:57;;;;;;;;;;;;;;;;;;2089300;28;46590;-69
2021/06/26 02:34:59;;;;;;;;;;;;;;;;;;2081290;28;45282;-69
2021/06/26 02:36:00;;;;;;;;;;;;;;;;;;2089656;28;44136;-69
2021/06/26 02:37:02;;;;;;;;;;;;;;;;;;2089946;28;46914;-69
2021/06/26 02:38:04;;;;;;;;;;;;;;;;;;2089933;28;45758;-69
2021/06/26 02:39:05;;;;;;;;;;;;;;;;;;2106107;28;45416;-69
2021/06/26 02:40:07;;;;;;;;;;;;;;;;;;2097442;28;45258;-68
2021/06/26 02:41:08;;;;;;;;;;;;;;;;;;2089448;28;43332;-69
2021/06/26 02:42:10;;;;;;;;;;;;;;;;;;2088885;28;45606;-68
2021/06/26 02:43:11;;;;;;;;;;;;;;;;;;2089369;28;43365;-69
2021/06/26 02:44:13;;;;;;;;;;;;;;;;;;2089601;28;45539;-69
2021/06/26 02:45:15;;;;;;;;;;;;;;;;;;2089852;28;46590;-69
2021/06/26 02:46:16;;;;;;;;;;;;;;;;;;2089052;28;45291;-69
2021/06/26 02:47:18;;;;;;;;;;;;;;;;;;2089265;28;44061;-69
2021/06/26 02:48:20;;;;;;;;;;;;;;;;;;2089313;28;44248;-69
2021/06/26 02:49:21;;;;;;;;;;;;;;;;;;2089326;28;46406;-69
2021/06/26 02:50:23;;;;;;;;;;;;;;;;;;2105800;28;43536;-69
2021/06/26 02:51:25;;;;;;;;;;;;;;;;;;2105107;28;45243;-68
2021/06/26 02:52:26;;;;;;;;;;;;;;;;;;2088647;28;45658;-69
2021/06/26 02:53:28;;;;;;;;;;;;;;;;;;2097240;28;46986;-68
2021/06/26 02:54:29;;;;;;;;;;;;;;;;;;2097079;28;47180;-68
2021/06/26 02:55:31;;;;;;;;;;;;;;;;;;2089160;28;47029;-68
2021/06/26 02:56:32;;;;;;;;;;;;;;;;;;2089045;28;46037;-68
2021/06/26 02:57:33;;;;;;;;;;;;;;;;;;2089238;28;44757;-68
2021/06/26 02:58:35;;;;;;;;;;;;;;;;;;2089722;28;46985;-68
2021/06/26 02:59:40;;;;;;;;;;;;;;;;;;2098592;28;46116;-68
2021/06/26 03:00:45;;;;;;;;;;;;;;;;;;2090027;28;46230;-69
2021/06/26 03:01:50;;;;;;;;;;;;;;;;;;2090281;28;46162;-69
2021/06/26 03:02:54;;;;;;;;;;;;;;;;;;2089744;28;47126;-69
2021/06/26 03:03:55;;;;;;;;;;;;;;;;;;2097158;28;45968;-69
2021/06/26 03:04:56;;;;;;;;;;;;;;;;;;2089067;28;47047;-69
2021/06/26 03:05:58;;;;;;;;;;;;;;;;;;2081077;28;47495;-69
2021/06/26 03:06:59;;;;;;;;;;;;;;;;;;2080979;28;44674;-68
2021/06/26 03:08:01;;;;;;;;;;;;;;;;;;2081282;28;45404;-69
2021/06/26 03:09:02;;;;;;;;;;;;;;;;;;2089116;28;46084;-68
2021/06/26 03:10:04;;;;;;;;;;;;;;;;;;2088983;28;46104;-69
2021/06/26 03:11:05;;;;;;;;;;;;;;;;;;2097343;28;46972;-69
2021/06/26 03:12:07;;;;;;;;;;;;;;;;;;2105234;28;45719;-69
2021/06/26 03:13:08;;;;;;;;;;;;;;;;;;2089146;28;47079;-68
2021/06/26 03:14:10;;;;;;;;;;;;;;;;;;2089152;28;43036;-69
2021/06/26 03:15:12;;;;;;;;;;;;;;;;;;2090064;28;47436;-69
2021/06/26 03:16:13;;;;;;;;;;;;;;;;;;2105074;28;43894;-69
2021/06/26 03:17:15;;;;;;;;;;;;;;;;;;2097032;28;45170;-69
2021/06/26 03:18:16;;;;;;;;;;;;;;;;;;2089405;28;45665;-69
2021/06/26 03:19:18;;;;;;;;;;;;;;;;;;2097410;28;46395;-69
2021/06/26 03:20:19;;;;;;;;;;;;;;;;;;2106033;28;45483;-69
2021/06/26 03:21:20;;;;;;;;;;;;;;;;;;2105871;28;46736;-69
2021/06/26 03:22:22;;;;;;;;;;;;;;;;;;2088664;28;45602;-69
2021/06/26 03:23:23;;;;;;;;;;;;;;;;;;2089240;28;47192;-68
2021/06/26 03:24:27;;;;;;;;;;;;;;;;;;2105803;28;45396;-68
2021/06/26 03:25:28;;;;;;;;;;;;;;;;;;2097135;28;45365;-68
2021/06/26 03:26:33;;;;;;;;;;;;;;;;;;2089226;28;42558;-69
2021/06/26 03:27:34;;;;;;;;;;;;;;;;;;2089118;28;45212;-69
2021/06/26 03:28:36;;;;;;;;;;;;;;;;;;2081014;28;46573;-69
2021/06/26 03:29:38;;;;;;;;;;;;;;;;;;2081115;28;45430;-68
2021/06/26 03:30:39;;;;;;;;;;;;;;;;;;2089093;28;46511;-69
2021/06/26 03:31:40;;;;;;;;;;;;;;;;;;2089010;28;45495;-69
2021/06/26 03:32:42;;;;;;;;;;;;;;;;;;2088743;28;44144;-69
2021/06/26 03:33:43;;;;;;;;;;;;;;;;;;2089593;28;46394;-69
2021/06/26 03:34:45;;;;;;;;;;;;;;;;;;2089456;28;45948;-68
2021/06/26 03:35:46;;;;;;;;;;;;;;;;;;2089576;28;45567;-68
2021/06/26 03:36:48;;;;;;;;;;;;;;;;;;2089741;28;45542;-68
2021/06/26 03:37:50;;;;;;;;;;;;;;;;;;2089579;28;46750;-68
2021/06/26 03:38:52;;;;;;;;;;;;;;;;;;2089548;28;42955;-68
2021/06/26 03:39:53;;;;;;;;;;;;;;;;;;2089445;28;47538;-68
2021/06/26 03:40:55;;;;;;;;;;;;;;;;;;2088761;28;46302;-68
2021/06/26 03:41:56;;;;;;;;;;;;;;;;;;2080589;28;45792;-68
2021/06/26 03:42:58;;;;;;;;;;;;;;;;;;2088648;28;45381;-68
2021/06/26 03:44:01;;;;;;;;;;;;;;;;;;2088969;28;45430;-69
2021/06/26 03:45:03;;;;;;;;;;;;;;;;;;2089001;28;44116;-69
2021/06/26 03:46:04;;;;;;;;;;;;;;;;;;2105696;28;43709;-69
2021/06/26 03:47:06;;;;;;;;;;;;;;;;;;2096926;28;46702;-69
2021/06/26 03:48:08;;;;;;;;;;;;;;;;;;2089024;28;45739;-69
2021/06/26 03:49:09;;;;;;;;;;;;;;;;;;2105984;28;45388;-69
2021/06/26 03:50:11;;;;;;;;;;;;;;;;;;2105862;28;43802;-69
2021/06/26 03:51:13;;;;;;;;;;;;;;;;;;2096941;28;45727;-69
2021/06/26 03:52:14;;;;;;;;;;;;;;;;;;2088615;28;45471;-69
2021/06/26 03:53:15;;;;;;;;;;;;;;;;;;2080622;28;45539;-69
2021/06/26 03:54:17;;;;;;;;;;;;;;;;;;2080732;28;48271;-69
2021/06/26 03:55:18;;;;;;;;;;;;;;;;;;2089156;28;43937;-69
2021/06/26 03:56:20;;;;;;;;;;;;;;;;;;2105638;28;44079;-69
2021/06/26 03:57:22;;;;;;;;;;;;;;;;;;2096903;28;45935;-69
2021/06/26 03:58:25;;;;;;;;;;;;;;;;;;2081124;28;45547;-69
2021/06/26 03:59:29;;;;;;;;;;;;;;;;;;2081160;28;44977;-69
2021/06/26 04:00:30;;;;;;;;;;;;;;;;;;2097627;28;46962;-69
2021/06/26 04:01:32;;;;;;;;;;;;;;;;;;2105210;28;45728;-69
2021/06/26 04:02:34;;;;;;;;;;;;;;;;;;2088289;28;46053;-69
2021/06/26 04:03:35;;;;;;;;;;;;;;;;;;2080400;28;47329;-69
2021/06/26 04:04:37;;;;;;;;;;;;;;;;;;2088993;28;45654;-69
2021/06/26 04:05:38;;;;;;;;;;;;;;;;;;2089352;28;44572;-69
2021/06/26 04:06:39;;;;;;;;;;;;;;;;;;2105580;28;46958;-68
2021/06/26 04:07:41;;;;;;;;;;;;;;;;;;2096951;28;45970;-69
2021/06/26 04:08:42;;;;;;;;;;;;;;;;;;2088818;28;46979;-69
2021/06/26 04:09:44;;;;;;;;;;;;;;;;;;2088957;28;44434;-69
2021/06/26 04:10:45;;;;;;;;;;;;;;;;;;2088843;28;47019;-69
2021/06/26 04:11:47;;;;;;;;;;;;;;;;;;2088427;28;44612;-69
2021/06/26 04:12:48;;;;;;;;;;;;;;;;;;2088683;28;46986;-69
2021/06/26 04:13:50;;;;;;;;;;;;;;;;;;2097410;28;44412;-69
2021/06/26 04:14:51;;;;;;;;;;;;;;;;;;2096890;28;46130;-69
2021/06/26 04:15:54;;;;;;;;;;;;;;;;;;2080686;28;46189;-69
2021/06/26 04:16:55;;;;;;;;;;;;;;;;;;2080958;28;45884;-69
2021/06/26 04:17:57;;;;;;;;;;;;;;;;;;2088681;28;46929;-70
2021/06/26 04:18:58;;;;;;;;;;;;;;;;;;2089434;28;47145;-70
2021/06/26 04:20:00;;;;;;;;;;;;;;;;;;2088709;28;45757;-69
2021/06/26 04:21:01;;;;;;;;;;;;;;;;;;2089122;28;46000;-69
2021/06/26 04:22:03;;;;;;;;;;;;;;;;;;2088186;28;44355;-69
2021/06/26 04:23:04;;;;;;;;;;;;;;;;;;2097166;28;45102;-69
2021/06/26 04:24:06;;;;;;;;;;;;;;;;;;2096720;28;44358;-69
2021/06/26 04:25:08;;;;;;;;;;;;;;;;;;2088803;28;44372;-69
2021/06/26 04:26:09;;;;;;;;;;;;;;;;;;2088473;28;46441;-70
2021/06/26 04:27:10;;;;;;;;;;;;;;;;;;2088851;28;45806;-69
2021/06/26 04:28:12;;;;;;;;;;;;;;;;;;2097947;28;45407;-69
2021/06/26 04:29:13;;;;;;;;;;;;;;;;;;2090118;28;44037;-69
2021/06/26 04:30:15;;;;;;;;;;;;;;;;;;2090078;28;44878;-69
2021/06/26 04:31:17;;;;;;;;;;;;;;;;;;2106873;28;45212;-69
2021/06/26 04:32:18;;;;;;;;;;;;;;;;;;2097781;28;45453;-69
2021/06/26 04:33:20;;;;;;;;;;;;;;;;;;2081896;28;44110;-69
2021/06/26 04:34:21;;;;;;;;;;;;;;;;;;2073716;28;46596;-70
2021/06/26 04:35:25;;;;;;;;;;;;;;;;;;2073777;28;47063;-69
2021/06/26 04:36:26;;;;;;;;;;;;;;;;;;2081837;28;46458;-69
2021/06/26 04:37:28;;;;;;;;;;;;;;;;;;2082439;28;46318;-69
2021/06/26 04:38:29;;;;;;;;;;;;;;;;;;2082475;28;45683;-69
2021/06/26 04:39:30;;;;;;;;;;;;;;;;;;2082522;28;45314;-70
2021/06/26 04:40:32;;;;;;;;;;;;;;;;;;2082297;28;48038;-69
2021/06/26 04:41:35;;;;;;;;;;;;;;;;;;2081817;28;46242;-70
2021/06/26 04:42:36;;;;;;;;;;;;;;;;;;2073719;28;46387;-69
2021/06/26 04:43:38;;;;;;;;;;;;;;;;;;2081800;28;46661;-70
2021/06/26 04:44:39;;;;;;;;;;;;;;;;;;2082490;28;45350;-70
2021/06/26 04:45:44;;;;;;;;;;;;;;;;;;2081775;28;45602;-70
2021/06/26 04:46:45;;;;;;;;;;;;;;;;;;2081951;28;45950;-69
2021/06/26 04:47:47;;;;;;;;;;;;;;;;;;2090158;28;44095;-70
2021/06/26 04:48:49;;;;;;;;;;;;;;;;;;2081901;28;44148;-69
2021/06/26 04:49:50;;;;;;;;;;;;;;;;;;2089977;28;44034;-69
2021/06/26 04:50:51;;;;;;;;;;;;;;;;;;2098159;28;45014;-70
2021/06/26 04:51:53;;;;;;;;;;;;;;;;;;2081461;28;44011;-69
2021/06/26 04:52:54;;;;;;;;;;;;;;;;;;2081693;28;43982;-69
2021/06/26 04:53:56;;;;;;;;;;;;;;;;;;2082343;28;45807;-69
2021/06/26 04:54:57;;;;;;;;;;;;;;;;;;2090058;28;45421;-70
2021/06/26 04:55:59;;;;;;;;;;;;;;;;;;2081579;28;45484;-70
2021/06/26 04:57:00;;;;;;;;;;;;;;;;;;2073682;28;46650;-69
2021/06/26 04:58:02;;;;;;;;;;;;;;;;;;2073459;28;47006;-69
2021/06/26 04:59:03;;;;;;;;;;;;;;;;;;2073674;28;45462;-70
2021/06/26 05:00:05;;;;;;;;;;;;;;;;;;2081602;28;44188;-70
2021/06/26 05:01:07;;;;;;;;;;;;;;;;;;2081973;28;46685;-70
2021/06/26 05:02:08;;;;;;;;;;;;;;;;;;2089226;28;46894;-70
2021/06/26 05:03:10;;;;;;;;;;;;;;;;;;2082379;28;45678;-69
2021/06/26 05:04:12;;;;;;;;;;;;;;;;;;2090671;28;46325;-69
2021/06/26 05:05:13;;;;;;;;;;;;;;;;;;2106676;28;45934;-70
2021/06/26 05:06:16;;;;;;;;;;;;;;;;;;2106427;28;47249;-70
2021/06/26 05:07:17;;;;;;;;;;;;;;;;;;2090243;28;45778;-70
2021/06/26 05:08:19;;;;;;;;;;;;;;;;;;2089801;28;47282;-69
2021/06/26 05:09:21;;;;;;;;;;;;;;;;;;2106692;28;47064;-70
2021/06/26 05:10:22;;;;;;;;;;;;;;;;;;2106102;28;47455;-70
2021/06/26 05:11:24;;;;;;;;;;;;;;;;;;2106719;28;45977;-69
2021/06/26 05:12:25;;;;;;;;;;;;;;;;;;2097661;28;45950;-70
2021/06/26 05:13:27;;;;;;;;;;;;;;;;;;2090020;28;46184;-69
2021/06/26 05:14:28;;;;;;;;;;;;;;;;;;2089832;28;45068;-69
2021/06/26 05:15:29;;;;;;;;;;;;;;;;;;2089772;28;47029;-69
2021/06/26 05:16:31;;;;;;;;;;;;;;;;;;2090305;28;46415;-70
2021/06/26 05:17:32;;;;;;;;;;;;;;;;;;2106628;28;46830;-70
2021/06/26 05:18:34;;;;;;;;;;;;;;;;;;2106694;28;46123;-69
2021/06/26 05:19:35;;;;;;;;;;;;;;;;;;2098044;28;47083;-69
2021/06/26 05:20:37;;;;;;;;;;;;;;;;;;2106574;28;45976;-69
2021/06/26 05:21:39;;;;;;;;;;;;;;;;;;2097951;28;45085;-69
2021/06/26 05:22:40;;;;;;;;;;;;;;;;;;2089550;28;45788;-69
2021/06/26 05:23:42;;;;;;;;;;;;;;;;;;2098000;28;46909;-69
2021/06/26 05:24:43;;;;;;;;;;;;;;;;;;2090362;28;47024;-69
2021/06/26 05:25:44;;;;;;;;;;;;;;;;;;2089774;28;45974;-69
2021/06/26 05:26:46;;;;;;;;;;;;;;;;;;2089948;28;43823;-69
2021/06/26 05:27:47;;;;;;;;;;;;;;;;;;2098415;28;44348;-69
2021/06/26 05:28:49;;;;;;;;;;;;;;;;;;2098030;28;43887;-69
2021/06/26 05:29:50;;;;;;;;;;;;;;;;;;2089896;28;44350;-69
2021/06/26 05:30:52;;;;;;;;;;;;;;;;;;2090201;28;45677;-69
2021/06/26 05:31:53;;;;;;;;;;;;;;;;;;2090287;28;46719;-69
2021/06/26 05:32:55;;;;;;;;;;;;;;;;;;2089424;28;46564;-69
2021/06/26 05:33:56;;;;;;;;;;;;;;;;;;2098062;28;46455;-69
2021/06/26 05:34:58;;;;;;;;;;;;;;;;;;2097973;28;44073;-69
2021/06/26 05:35:59;;;;;;;;;;;;;;;;;;2089589;28;46574;-69
2021/06/26 05:37:01;;;;;;;;;;;;;;;;;;2081877;28;45338;-69
2021/06/26 05:38:02;;;;;;;;;;;;;;;;;;2098132;28;46436;-69
2021/06/26 05:39:04;;;;;;;;;;;;;;;;;;2097496;28;43014;-69
2021/06/26 05:40:06;;;;;;;;;;;;;;;;;;2097590;28;43232;-70
2021/06/26 05:41:08;;;;;;;;;;;;;;;;;;2106119;28;44267;-69
2021/06/26 05:42:10;;;;;;;;;;;;;;;;;;2105927;28;47053;-69
2021/06/26 05:43:11;;;;;;;;;;;;;;;;;;2106179;28;45771;-69
2021/06/26 05:44:12;;;;;;;;;;;;;;;;;;2089670;28;45432;-69
2021/06/26 05:45:14;;;;;;;;;;;;;;;;;;2089633;28;46436;-69
2021/06/26 05:46:15;;;;;;;;;;;;;;;;;;2089589;28;42917;-69
2021/06/26 05:47:17;;;;;;;;;;;;;;;;;;2081313;28;46420;-69
2021/06/26 05:48:18;;;;;;;;;;;;;;;;;;2082329;28;46513;-69
2021/06/26 05:49:20;;;;;;;;;;;;;;;;;;2082576;28;44150;-69
2021/06/26 05:50:21;;;;;;;;;;;;;;;;;;2100850;28;44041;-69
2021/06/26 05:51:22;;;;;;;;;;;;;;;;;;2101144;28;45482;-69
2021/06/26 05:52:24;;;;;;;;;;;;;;;;;;2084616;28;46832;-69
2021/06/26 05:53:25;;;;;;;;;;;;;;;;;;2084546;28;46598;-69
2021/06/26 05:54:27;;;;;;;;;;;;;;;;;;2084227;28;46564;-69
2021/06/26 05:55:29;;;;;;;;;;;;;;;;;;2084561;28;44817;-69
2021/06/26 05:56:31;;;;;;;;;;;;;;;;;;2084222;28;44440;-69
2021/06/26 05:57:32;;;;;;;;;;;;;;;;;;2084738;28;45514;-68
2021/06/26 05:58:36;;;;;;;;;;;;;;;;;;2084405;28;45431;-68
2021/06/26 05:59:38;;;;;;;;;;;;;;;;;;2084489;28;45433;-68
2021/06/26 06:00:39;;;;;;;;;;;;;;;;;;2084705;28;45462;-68
2021/06/26 06:01:40;;;;;;;;;;;;;;;;;;2084298;28;45588;-68
2021/06/26 06:02:42;;;;;;;;;;;;;;;;;;2084421;28;45601;-69
2021/06/26 06:03:46;;;;;;;;;;;;;;;;;;2097271;28;45477;-68
2021/06/26 06:04:47;;;;;;;;;;;;;;;;;;2092900;28;45432;-68
2021/06/26 06:05:50;;;;;;;;;;;;;;;;;;2091856;28;46671;-68
2021/06/26 06:06:52;;;;;;;;;;;;;;;;;;2092221;28;46653;-68
2021/06/26 06:07:53;;;;;;;;;;;;;;;;;;2092670;28;45232;-68
2021/06/26 06:08:55;;;;;;;;;;;;;;;;;;2108382;28;44142;-68
2021/06/26 06:09:56;;;;;;;;;;;;;;;;;;2100457;28;44424;-68
2021/06/26 06:10:58;;;;;;;;;;;;;;;;;;2092389;28;45979;-68
2021/06/26 06:11:59;;;;;;;;;;;;;;;;;;2091661;28;45036;-68
2021/06/26 06:13:01;;;;;;;;;;;;;;;;;;2092034;28;45594;-68
2021/06/26 06:14:02;;;;;;;;;;;;;;;;;;2108456;28;47088;-68
2021/06/26 06:15:05;;;;;;;;;;;;;;;;;;2108558;28;45138;-68
2021/06/26 06:16:07;;;;;;;;;;;;;;;;;;2090381;28;45924;-68
2021/06/26 06:17:08;;;;;;;;;;;;;;;;;;2090094;28;47369;-68
2021/06/26 06:18:11;;;;;;;;;;;;;;;;;;2089363;28;45975;-68
2021/06/26 06:19:15;;;;;;;;;;;;;;;;;;2081937;28;45965;-68
2021/06/26 06:20:16;;;;;;;;;;;;;;;;;;2089532;28;46242;-68
2021/06/26 06:21:18;;;;;;;;;;;;;;;;;;2097828;28;45792;-68
2021/06/26 06:22:19;;;;;;;;;;;;;;;;;;2089130;28;45726;-68
2021/06/26 06:23:21;;;;;;;;;;;;;;;;;;2089381;28;45937;-68
2021/06/26 06:24:22;;;;;;;;;;;;;;;;;;2089601;28;47507;-68
2021/06/26 06:25:24;;;;;;;;;;;;;;;;;;2097654;28;47261;-68
2021/06/26 06:26:25;;;;;;;;;;;;;;;;;;2089458;28;47320;-68
2021/06/26 06:27:27;;;;;;;;;;;;;;;;;;2081315;28;45853;-68
2021/06/26 06:28:28;;;;;;;;;;;;;;;;;;2089311;28;45756;-69
2021/06/26 06:29:29;;;;;;;;;;;;;;;;;;2089265;28;46983;-69
2021/06/26 06:30:33;;;;;;;;;;;;;;;;;;2081359;28;46000;-69
2021/06/26 06:31:34;;;;;;;;;;;;;;;;;;2089459;28;45418;-68
2021/06/26 06:32:36;;;;;;;;;;;;;;;;;;2089547;28;46252;-68
2021/06/26 06:33:38;;;;;;;;;;;;;;;;;;2097441;28;45207;-69
2021/06/26 06:34:39;;;;;;;;;;;;;;;;;;2089978;28;46524;-68
2021/06/26 06:35:41;;;;;;;;;;;;;;;;;;2089123;28;46232;-68
2021/06/26 06:36:42;;;;;;;;;;;;;;;;;;2097906;28;43493;-68
2021/06/26 06:37:43;;;;;;;;;;;;;;;;;;2097426;28;46466;-68
2021/06/26 06:38:45;;;;;;;;;;;;;;;;;;2081274;28;46570;-68
2021/06/26 06:39:46;;;;;;;;;;;;;;;;;;2089224;28;45350;-68
2021/06/26 06:40:48;;;;;;;;;;;;;;;;;;2089898;28;46659;-68
2021/06/26 06:41:49;;;;;;;;;;;;;;;;;;2105903;28;44379;-68
2021/06/26 06:42:51;;;;;;;;;;;;;;;;;;2105567;28;43959;-68
2021/06/26 06:43:52;;;;;;;;;;;;;;;;;;2089488;28;45230;-68
2021/06/26 06:44:54;;;;;;;;;;;;;;;;;;2106046;28;46268;-68
2021/06/26 06:45:55;;;;;;;;;;;;;;;;;;2105787;28;43950;-68
2021/06/26 06:46:57;;;;;;;;;;;;;;;;;;2106132;28;45563;-68
2021/06/26 06:47:58;;;;;;;;;;;;;;;;;;2105409;28;46809;-68
2021/06/26 06:49:00;;;;;;;;;;;;;;;;;;2089249;28;45310;-68
2021/06/26 06:50:01;;;;;;;;;;;;;;;;;;2080756;28;45175;-68
2021/06/26 06:51:03;;;;;;;;;;;;;;;;;;2097813;28;45310;-68
2021/06/26 06:52:05;;;;;;;;;;;;;;;;;;2105426;28;45359;-68
2021/06/26 06:53:06;;;;;;;;;;;;;;;;;;2089796;28;45670;-68
2021/06/26 06:54:08;;;;;;;;;;;;;;;;;;2089505;28;45232;-68
2021/06/26 06:55:09;;;;;;;;;;;;;;;;;;2089350;28;44775;-68
2021/06/26 06:56:11;;;;;;;;;;;;;;;;;;2105918;28;45482;-68
2021/06/26 06:57:12;;;;;;;;;;;;;;;;;;2106003;28;45331;-68
2021/06/26 06:58:14;;;;;;;;;;;;;;;;;;2089680;28;46616;-68
2021/06/26 06:59:15;;;;;;;;;;;;;;;;;;2089772;28;44449;-68
2021/06/26 07:00:17;;;;;;;;;;;;;;;;;;2105752;28;46588;-68
2021/06/26 07:01:18;;;;;;;;;;;;;;;;;;2105616;28;45429;-68